Archival Weather

NSFA McMurdo Sound

NSFA McMurdo Sound, Antarctica (NZCM)

Report from: Thursday, September 21, 2023 7:55 PM UTC
Current time: Saturday, February 24, 2024 4:26 PM UTC

Current weather – Weather history – Daily summaries
Weather forecast

Temperature-13.0°C (8.6°F)
Wind chill-24.4°C (-11.9°F)
Dew point-15.8°C (3.6°F)
Winds 20 kts (10.3 m/s, 23 mph) East-Southeast (120°)
Wind gusts 28 kts (14.4 m/s, 32.2 mph)
Peak wind 35 kts (18 m/s, 40.3 mph) East-Southeast (120°) at 19:29
Visibility4.3 mi. (7 km)
Clouds Ceiling: Overcast 11,000 ft. (3,353 m)
Altimeter28.96 in.Hg (981 mB)
Relative humidity79 %
Density altitude-5,780 ft. (-1,762 m)
Sea-level pressure108.1 kPa (1081 mB, 31.92 in.Hg)
Remarks Fully automated report
Automated weather observing station with precipitation discriminator
Flight conditions Marginal Visual Meteorological Conditions
Raw dataNZCM 211955Z AUTO 12020G28KT 7000 OVC110 M13/M16 A2896 RMK AO2 PK WND 12035/1929 SLP811 T11301158
An error has occurred. This application may no longer respond until reloaded. Reload 🗙